Time;durP1;ratioP1;P1;durP2;ratioP2;P2;SDS_P1;SDS_P2;PMS_P1;PMS_P2;Temp;Humidity;BMP_temperature;BMP_pressure;BME280_temperature;BME280_humidity;BME280_pressure;Samples;Min_cycle;Max_cycle;Signal;HPM_P1;HPM_P2
2023/11/08 00:01:52;;;;;;;0.10;0.10;;;;;;;11.92;63.83;99591.13;7357994;19;20014;-55
2023/11/08 00:04:19;;;;;;;0.10;0.10;;;;;;;11.79;64.14;99572.47;7357181;19;20101;-57
2023/11/08 00:06:44;;;;;;;0.10;0.10;;;;;;;11.89;63.58;99586.88;7355912;19;20014;-56
2023/11/08 00:09:10;;;;;;;0.08;0.08;;;;;;;11.89;63.84;99578.19;7356421;19;20032;-57
2023/11/08 00:11:35;;;;;;;0.10;0.10;;;;;;;11.88;64.01;99573.88;7356280;19;20115;-57
2023/11/08 00:14:01;;;;;;;0.10;0.10;;;;;;;11.86;64.52;99562.63;7354337;19;20041;-56
2023/11/08 00:16:27;;;;;;;0.00;0.00;;;;;;;11.85;64.60;99545.22;7357106;19;20042;-56
2023/11/08 00:18:52;;;;;;;0.10;0.10;;;;;;;11.80;64.76;99534.09;7354966;19;20019;-56
2023/11/08 00:21:18;;;;;;;0.10;0.10;;;;;;;11.79;64.50;99532.41;7364764;19;20003;-57
2023/11/08 00:23:43;;;;;;;0.10;0.10;;;;;;;11.75;65.20;99530.84;7336259;19;20405;-57
2023/11/08 00:26:09;;;;;;;0.10;0.10;;;;;;;11.70;65.74;99529.28;7366173;19;20044;-58
2023/11/08 00:28:34;;;;;;;0.10;0.10;;;;;;;11.68;65.20;99525.06;7370203;19;20019;-56
2023/11/08 00:31:01;;;;;;;0.03;0.03;;;;;;;11.64;66.22;99513.03;7370279;19;20119;-55
2023/11/08 00:33:27;;;;;;;0.10;0.10;;;;;;;11.61;66.07;99498.34;7367508;19;20010;-57
2023/11/08 00:35:52;;;;;;;0.10;0.10;;;;;;;11.58;66.43;99493.25;7369610;19;20021;-56
2023/11/08 00:38:18;;;;;;;0.10;0.10;;;;;;;11.55;67.09;99484.69;7349565;19;20019;-57
2023/11/08 00:40:43;;;;;;;0.08;0.08;;;;;;;11.54;66.61;99470.78;7351746;19;21036;-57
2023/11/08 00:43:10;;;;;;;0.17;0.17;;;;;;;11.52;67.27;99470.00;7374502;19;20018;-56
2023/11/08 00:45:35;;;;;;;0.10;0.10;;;;;;;11.50;67.17;99458.75;7379910;19;20011;-56
2023/11/08 00:48:01;;;;;;;0.03;0.03;;;;;;;11.48;67.49;99457.16;7377048;19;20018;-58
2023/11/08 00:50:27;;;;;;;0.10;0.10;;;;;;;11.46;67.42;99445.94;7368126;19;20381;-56
2023/11/08 00:52:53;;;;;;;0.10;0.10;;;;;;;11.43;67.71;99437.28;7370577;19;20014;-56
2023/11/08 00:55:19;;;;;;;0.10;0.10;;;;;;;11.43;67.72;99428.59;7366369;19;20358;-55
2023/11/08 00:57:44;;;;;;;0.10;0.10;;;;;;;11.41;68.22;99409.53;7369843;19;20010;-58
2023/11/08 01:00:10;;;;;;;0.10;0.10;;;;;;;11.38;68.54;99410.53;7363922;19;20011;-56
2023/11/08 01:02:36;;;;;;;0.10;0.10;;;;;;;11.36;68.59;99398.47;7363131;19;20011;-57
2023/11/08 01:05:01;;;;;;;0.10;0.10;;;;;;;11.31;70.36;99379.53;7367031;19;20034;-55
2023/11/08 01:07:27;;;;;;;0.10;0.10;;;;;;;11.31;70.72;99384.75;7369155;19;20115;-57
2023/11/08 01:09:52;;;;;;;0.10;0.10;;;;;;;11.27;71.30;99367.53;7366285;19;20015;-56
2023/11/08 01:12:18;;;;;;;0.05;0.05;;;;;;;11.22;71.88;99359.91;7369149;19;20038;-56
2023/11/08 01:14:44;;;;;;;0.10;0.10;;;;;;;11.07;70.99;99340.56;7367693;19;20106;-55
2023/11/08 01:17:10;;;;;;;0.10;0.10;;;;;;;11.18;73.13;99359.19;7368823;19;20418;-57
2023/11/08 01:19:36;;;;;;;0.00;0.00;;;;;;;11.15;73.59;99348.91;7365549;19;20017;-56
2023/11/08 01:22:05;;;;;;;0.10;0.10;;;;;;;11.13;73.35;99340.25;7368153;19;20113;-57
2023/11/08 01:24:34;;;;;;;0.08;0.08;;;;;;;11.08;73.98;99321.34;7361031;19;20685;-56
2023/11/08 01:27:01;;;;;;;0.10;0.10;;;;;;;11.05;74.39;99321.50;7366082;19;20022;-57
2023/11/08 01:29:27;;;;;;;0.00;0.00;;;;;;;11.08;73.83;99323.09;7365817;19;20010;-54
2023/11/08 01:31:54;;;;;;;0.10;0.10;;;;;;;11.06;74.45;99312.75;7357297;19;20738;-56
2023/11/08 01:34:20;;;;;;;0.03;0.03;;;;;;;11.06;73.87;99301.44;7367621;19;20010;-56
2023/11/08 01:36:45;;;;;;;0.10;0.10;;;;;;;11.02;74.33;99290.28;7362716;19;20010;-53
2023/11/08 01:39:10;;;;;;;0.10;0.10;;;;;;;10.98;74.46;99275.66;7363877;19;20003;-55
2023/11/08 01:41:36;;;;;;;0.08;0.08;;;;;;;11.01;74.59;99267.69;7369445;19;20024;-56
2023/11/08 01:44:03;;;;;;;0.10;0.10;;;;;;;10.99;74.60;99248.63;7361982;19;20676;-55
2023/11/08 01:46:29;;;;;;;0.10;0.10;;;;;;;10.99;74.73;99253.84;7363276;19;20038;-57
2023/11/08 01:48:55;;;;;;;0.08;0.08;;;;;;;10.84;74.76;99216.25;7367577;19;20869;-56
2023/11/08 01:51:21;;;;;;;0.10;0.10;;;;;;;10.96;75.44;99233.13;7350504;19;20018;-57
2023/11/08 01:53:49;;;;;;;0.10;0.10;;;;;;;10.96;74.52;99212.22;7366733;19;20454;-57
2023/11/08 01:56:16;;;;;;;0.10;0.10;;;;;;;10.95;75.59;99205.31;7354630;19;20019;-54
2023/11/08 01:58:41;;;;;;;0.10;0.10;;;;;;;10.94;76.10;99193.16;7366247;19;20006;-56
2023/11/08 02:01:08;;;;;;;0.00;0.00;;;;;;;10.94;75.84;99177.47;7364240;19;20035;-56
2023/11/08 02:03:35;;;;;;;0.10;0.10;;;;;;;10.92;75.84;99158.44;7366187;19;20029;-55
2023/11/08 02:06:02;;;;;;;0.10;0.10;;;;;;;10.95;76.11;99162.66;7368548;19;20011;-56
2023/11/08 02:08:28;;;;;;;0.10;0.10;;;;;;;10.94;76.34;99135.69;7362190;19;20062;-57
2023/11/08 02:10:54;;;;;;;0.10;0.10;;;;;;;10.93;76.12;99123.56;7370295;19;20006;-58
2023/11/08 02:13:21;;;;;;;0.10;0.10;;;;;;;10.95;76.09;99116.50;7358422;19;20009;-56
2023/11/08 02:15:48;;;;;;;0.10;0.10;;;;;;;10.84;75.72;99079.63;7365270;19;20507;-53
2023/11/08 02:18:14;;;;;;;0.00;0.00;;;;;;;10.86;74.86;99080.41;7365227;19;20070;-55
2023/11/08 02:20:39;;;;;;;0.10;0.10;;;;;;;10.97;74.97;99104.22;7362053;19;20814;-56
2023/11/08 02:23:05;;;;;;;0.10;0.10;;;;;;;10.96;74.93;99071.19;7367337;19;20498;-56
2023/11/08 02:25:30;;;;;;;0.05;0.05;;;;;;;10.96;75.62;99063.34;7364333;19;19999;-54
2023/11/08 02:27:56;;;;;;;0.00;0.00;;;;;;;10.97;75.63;99049.38;7366587;19;20010;-56
2023/11/08 02:30:23;;;;;;;0.10;0.10;;;;;;;10.96;75.47;99042.47;7366793;19;20006;-55
2023/11/08 02:32:49;;;;;;;0.10;0.10;;;;;;;11.00;75.24;99036.16;7363555;19;20030;-55
2023/11/08 02:35:15;;;;;;;0.10;0.10;;;;;;;11.00;76.08;99019.63;7363224;19;20747;-57
2023/11/08 02:37:41;;;;;;;0.08;0.08;;;;;;;10.88;75.72;98989.75;7363995;19;20068;-55
2023/11/08 02:40:08;;;;;;;0.10;0.10;;;;;;;11.04;76.02;98995.88;7368282;19;20451;-56
2023/11/08 02:42:34;;;;;;;0.10;0.10;;;;;;;10.89;76.07;98960.09;7364917;19;20011;-55
2023/11/08 02:44:59;;;;;;;0.10;0.10;;;;;;;11.07;75.88;98974.00;7366524;19;20002;-56
2023/11/08 02:47:24;;;;;;;0.10;0.10;;;;;;;11.10;76.13;98969.47;7362532;19;20038;-57
2023/11/08 02:49:50;;;;;;;0.10;0.10;;;;;;;11.13;76.52;98963.22;7364075;19;20022;-57
2023/11/08 02:52:15;;;;;;;0.10;0.10;;;;;;;11.16;76.36;98963.91;7362420;19;20011;-57
2023/11/08 02:54:41;;;;;;;0.10;0.10;;;;;;;11.20;76.16;98950.66;7362735;19;20027;-57
2023/11/08 02:57:07;;;;;;;0.10;0.10;;;;;;;11.22;75.71;98952.28;7366705;19;20014;-55
2023/11/08 02:59:36;;;;;;;0.10;0.10;;;;;;;11.23;76.63;98943.50;7358743;19;20026;-57
2023/11/08 03:02:01;;;;;;;0.08;0.08;;;;;;;11.26;76.68;98937.28;7368951;19;20030;-56
2023/11/08 03:04:30;;;;;;;0.10;0.10;;;;;;;11.28;76.77;98924.97;7366736;19;20627;-56
2023/11/08 03:06:56;;;;;;;0.10;0.10;;;;;;;11.31;76.85;98919.59;7363993;19;20814;-56
2023/11/08 03:09:21;;;;;;;0.10;0.10;;;;;;;11.34;76.65;98911.56;7363878;19;20036;-55
2023/11/08 03:11:47;;;;;;;0.10;0.10;;;;;;;11.35;77.57;98900.19;7360898;19;20003;-57
2023/11/08 03:14:12;;;;;;;0.10;0.10;;;;;;;11.37;77.48;98888.75;7359211;19;20056;-56
2023/11/08 03:16:37;;;;;;;0.10;0.10;;;;;;;11.39;77.77;98881.66;7358991;19;20604;-56
2023/11/08 03:19:03;;;;;;;0.10;0.10;;;;;;;11.43;77.47;98877.09;7364474;19;20044;-55
2023/11/08 03:21:29;;;;;;;0.10;0.10;;;;;;;11.42;77.42;98859.75;7363080;19;20011;-55
2023/11/08 03:23:54;;;;;;;0.10;0.10;;;;;;;11.49;77.84;98855.00;7361693;19;20010;-57
2023/11/08 03:26:20;;;;;;;0.10;0.10;;;;;;;11.51;77.09;98843.56;7363754;19;20464;-57
2023/11/08 03:28:46;;;;;;;0.10;0.10;;;;;;;11.52;77.66;98834.78;7362297;19;20078;-56
2023/11/08 03:31:12;;;;;;;0.10;0.10;;;;;;;11.57;77.51;98831.91;7363707;19;20014;-55
2023/11/08 03:33:38;;;;;;;0.10;0.10;;;;;;;11.58;77.77;98823.97;7364468;19;20070;-56
2023/11/08 03:36:04;;;;;;;0.10;0.10;;;;;;;11.62;76.74;98817.63;7359378;19;20105;-58
2023/11/08 03:38:29;;;;;;;0.10;0.10;;;;;;;11.63;76.83;98816.69;7363419;19;20487;-56
2023/11/08 03:40:54;;;;;;;0.10;0.10;;;;;;;11.68;77.37;98803.38;7355055;19;20015;-55
2023/11/08 03:43:20;;;;;;;0.10;0.10;;;;;;;11.70;77.46;98804.94;7359391;19;20086;-57
2023/11/08 03:45:45;;;;;;;0.10;0.10;;;;;;;11.74;77.41;98796.94;7367832;19;20016;-57
2023/11/08 03:48:11;;;;;;;0.10;0.10;;;;;;;11.76;77.34;98779.38;7368764;19;20006;-55
2023/11/08 03:50:38;;;;;;;0.10;0.10;;;;;;;11.79;76.61;98779.22;7360706;19;20006;-57
2023/11/08 03:53:04;;;;;;;0.10;0.10;;;;;;;11.86;76.71;98785.78;7364338;19;20570;-57
2023/11/08 03:55:30;;;;;;;0.10;0.10;;;;;;;11.88;77.04;98778.72;7357409;19;20121;-57
2023/11/08 03:57:55;;;;;;;0.10;0.10;;;;;;;11.90;76.85;98776.84;7360639;19;20013;-57
2023/11/08 04:00:22;;;;;;;0.10;0.10;;;;;;;11.96;77.02;98781.69;7364147;19;20054;-57
2023/11/08 04:02:47;;;;;;;0.10;0.10;;;;;;;11.97;76.76;98749.41;7359976;19;20358;-57
2023/11/08 04:05:13;;;;;;;0.10;0.10;;;;;;;12.06;76.49;98761.91;7359884;19;20074;-56
2023/11/08 04:07:38;;;;;;;0.10;0.10;;;;;;;12.10;77.02;98750.34;7360422;19;20336;-58
2023/11/08 04:10:05;;;;;;;0.08;0.08;;;;;;;12.13;77.64;98767.63;7357553;19;20007;-55
2023/11/08 04:12:30;;;;;;;0.10;0.10;;;;;;;12.16;77.61;98762.19;7358434;19;20021;-57
2023/11/08 04:14:55;;;;;;;0.10;0.10;;;;;;;12.19;77.56;98768.09;7363131;19;20010;-57
2023/11/08 04:17:21;;;;;;;0.10;0.10;;;;;;;12.10;77.76;98741.66;7339304;19;20037;-56
2023/11/08 04:19:47;;;;;;;0.10;0.10;;;;;;;12.28;77.37;98776.34;7355507;19;20344;-57
2023/11/08 04:22:14;;;;;;;0.05;0.05;;;;;;;12.28;77.76;98760.63;7359255;19;20030;-57
2023/11/08 04:24:41;;;;;;;0.10;0.10;;;;;;;12.38;77.80;98767.00;7362829;19;20421;-55
2023/11/08 04:27:06;;;;;;;0.10;0.10;;;;;;;12.42;77.67;98773.72;7361449;19;20359;-57
2023/11/08 04:29:31;;;;;;;0.10;0.10;;;;;;;12.51;77.58;98772.31;7363166;19;20070;-56
2023/11/08 04:31:57;;;;;;;0.10;0.10;;;;;;;12.56;77.61;98772.88;7359986;19;20019;-57
2023/11/08 04:34:23;;;;;;;0.05;0.05;;;;;;;12.62;77.60;98772.47;7362046;19;20076;-56
2023/11/08 04:36:49;;;;;;;0.10;0.10;;;;;;;12.61;77.42;98763.78;7358737;19;20047;-57
2023/11/08 04:39:16;;;;;;;0.03;0.03;;;;;;;12.71;77.03;98770.13;7358006;19;20002;-54
2023/11/08 04:41:42;;;;;;;0.10;0.10;;;;;;;12.76;77.33;98774.25;7360774;19;20676;-56
2023/11/08 04:44:08;;;;;;;0.10;0.10;;;;;;;12.78;77.04;98775.03;7355019;19;20007;-57
2023/11/08 04:46:34;;;;;;;0.10;0.10;;;;;;;12.81;77.14;98785.28;7371514;19;20030;-57
2023/11/08 04:48:59;;;;;;;0.10;0.10;;;;;;;12.81;77.04;98790.53;7364040;19;20003;-55
2023/11/08 04:51:25;;;;;;;0.10;0.10;;;;;;;12.80;76.97;98783.59;7360905;19;20029;-55
2023/11/08 04:53:50;;;;;;;0.10;0.10;;;;;;;12.79;76.98;98779.31;7352770;19;20105;-56
2023/11/08 04:56:15;;;;;;;0.10;0.10;;;;;;;12.82;76.85;98797.44;7360489;19;20007;-56
2023/11/08 04:58:41;;;;;;;0.10;0.10;;;;;;;12.83;76.80;98827.97;7359579;19;20440;-58
2023/11/08 05:01:07;;;;;;;0.10;0.10;;;;;;;12.81;77.27;98822.78;7355249;19;20663;-56
2023/11/08 05:03:32;;;;;;;0.10;0.10;;;;;;;12.78;77.05;98827.41;7367899;19;20014;-55
2023/11/08 05:05:57;;;;;;;0.00;0.00;;;;;;;12.72;76.78;98818.13;7356432;19;20010;-55
2023/11/08 05:08:23;;;;;;;0.10;0.10;;;;;;;12.66;76.69;98836.84;7363643;19;20029;-56
2023/11/08 05:10:49;;;;;;;0.10;0.10;;;;;;;12.56;77.29;98825.22;7375710;19;20508;-58
2023/11/08 05:13:15;;;;;;;0.10;0.10;;;;;;;12.53;77.22;98834.13;7366538;19;20022;-55
2023/11/08 05:15:40;;;;;;;0.10;0.10;;;;;;;12.47;76.92;98839.75;7357662;19;21171;-56
2023/11/08 05:18:07;;;;;;;0.00;0.00;;;;;;;12.41;77.34;98838.31;7374621;19;20014;-56
2023/11/08 05:20:35;;;;;;;0.10;0.10;;;;;;;12.37;76.99;98843.84;7364889;19;20006;-57
2023/11/08 05:23:00;;;;;;;0.10;0.10;;;;;;;12.28;77.38;98839.16;7370247;19;20947;-56
2023/11/08 05:25:26;;;;;;;0.10;0.10;;;;;;;12.28;77.22;98849.63;7363641;19;20090;-56
2023/11/08 05:27:53;;;;;;;0.10;0.10;;;;;;;12.23;77.72;98846.44;7364885;19;20015;-57
2023/11/08 05:30:19;;;;;;;0.10;0.10;;;;;;;12.18;77.06;98849.31;7365490;19;20367;-54
2023/11/08 05:32:45;;;;;;;0.10;0.10;;;;;;;12.16;77.07;98845.94;7371003;19;20064;-56
2023/11/08 05:35:13;;;;;;;0.17;0.17;;;;;;;12.05;77.27;98851.78;7358740;19;20885;-56
2023/11/08 05:37:41;;;;;;;0.00;0.00;;;;;;;12.00;77.56;98835.53;7367794;19;20074;-55
2023/11/08 05:40:12;;;;;;;0.10;0.10;;;;;;;12.06;77.82;98842.16;7366636;19;20018;-57
2023/11/08 05:42:39;;;;;;;0.10;0.10;;;;;;;12.03;78.02;98851.06;7367656;19;20030;-58
2023/11/08 05:45:06;;;;;;;0.10;0.10;;;;;;;11.90;78.33;98850.06;7364733;19;20015;-56
2023/11/08 05:47:31;;;;;;;0.10;0.10;;;;;;;11.94;78.70;98862.88;7365774;19;20035;-56
2023/11/08 05:49:57;;;;;;;0.10;0.10;;;;;;;11.94;78.60;98872.50;7370265;19;20018;-55
2023/11/08 05:52:22;;;;;;;0.10;0.10;;;;;;;11.95;78.28;98895.13;7358393;19;20423;-56
2023/11/08 05:54:48;;;;;;;0.10;0.10;;;;;;;11.94;78.06;98896.06;7366226;19;20059;-54
2023/11/08 05:57:14;;;;;;;0.10;0.10;;;;;;;11.94;78.22;98902.13;7365423;19;20021;-56
2023/11/08 05:59:42;;;;;;;0.08;0.08;;;;;;;11.83;78.43;98901.06;7368238;19;20022;-56
2023/11/08 06:02:09;;;;;;;0.00;0.00;;;;;;;11.93;78.64;98912.69;7366756;19;20113;-57
2023/11/08 06:04:34;;;;;;;0.10;0.10;;;;;;;11.92;78.61;98927.53;7366866;19;20376;-57
2023/11/08 06:07:00;;;;;;;0.10;0.10;;;;;;;11.92;78.00;98931.94;7362421;19;20006;-56
2023/11/08 06:09:25;;;;;;;0.10;0.10;;;;;;;11.90;78.18;98949.47;7366107;19;20006;-57
2023/11/08 06:11:51;;;;;;;0.10;0.10;;;;;;;11.87;77.98;98949.66;7361764;19;20005;-57
2023/11/08 06:14:16;;;;;;;0.10;0.10;;;;;;;11.84;77.87;98957.66;7367392;19;20006;-57
2023/11/08 06:16:42;;;;;;;0.00;0.00;;;;;;;11.82;77.50;98967.38;7362957;19;20010;-56
2023/11/08 06:19:08;;;;;;;0.10;0.10;;;;;;;11.78;77.77;98973.66;7367252;19;20010;-56
2023/11/08 06:21:34;;;;;;;0.10;0.10;;;;;;;11.69;77.93;98962.78;7368662;19;20090;-56
2023/11/08 06:24:00;;;;;;;0.10;0.10;;;;;;;11.71;77.85;98975.78;7365319;19;20499;-56
2023/11/08 06:26:25;;;;;;;0.10;0.10;;;;;;;11.68;77.46;98982.00;7359416;19;20019;-56
2023/11/08 06:28:52;;;;;;;0.10;0.10;;;;;;;11.65;77.83;98999.63;7363849;19;20007;-57
2023/11/08 06:31:21;;;;;;;0.10;0.10;;;;;;;11.59;77.82;99002.56;7365839;19;20177;-57
2023/11/08 06:33:47;;;;;;;0.10;0.10;;;;;;;11.40;77.61;98976.56;7356135;19;20090;-56
2023/11/08 06:36:13;;;;;;;0.10;0.10;;;;;;;11.52;77.33;99020.38;7363377;19;20015;-56
2023/11/08 06:38:39;;;;;;;0.10;0.10;;;;;;;11.46;77.94;99023.31;7365686;19;20739;-57
2023/11/08 06:41:05;;;;;;;0.00;0.00;;;;;;;11.43;77.77;99028.69;7369142;19;20031;-57
2023/11/08 06:43:30;;;;;;;0.10;0.10;;;;;;;11.24;77.64;99004.44;7363881;19;20601;-57
2023/11/08 06:45:56;;;;;;;0.10;0.10;;;;;;;11.32;77.50;99026.66;7366672;19;20006;-57
2023/11/08 06:48:21;;;;;;;0.00;0.00;;;;;;;11.27;77.44;99027.81;7363584;19;20002;-57
2023/11/08 06:50:47;;;;;;;0.08;0.08;;;;;;;11.20;77.82;99037.72;7357723;19;20010;-57
2023/11/08 06:53:12;;;;;;;0.10;0.10;;;;;;;11.15;77.47;99035.38;7361848;19;20499;-56
2023/11/08 06:55:38;;;;;;;0.10;0.10;;;;;;;11.08;77.41;99044.44;7343423;19;20947;-57
2023/11/08 06:58:04;;;;;;;0.10;0.10;;;;;;;11.02;77.55;99036.91;7363272;19;20069;-56
2023/11/08 07:00:30;;;;;;;0.08;0.08;;;;;;;10.86;77.81;99022.97;7360956;19;20021;-57
2023/11/08 07:02:55;;;;;;;0.10;0.10;;;;;;;10.91;77.56;99052.28;7359431;19;20050;-58
2023/11/08 07:05:21;;;;;;;0.10;0.10;;;;;;;10.85;77.51;99057.84;7362131;19;20920;-56
2023/11/08 07:07:47;;;;;;;0.00;0.00;;;;;;;10.81;77.86;99064.13;7363845;19;20018;-56
2023/11/08 07:10:13;;;;;;;0.00;0.00;;;;;;;10.75;77.54;99061.81;7363739;19;20018;-55
2023/11/08 07:12:40;;;;;;;0.10;0.10;;;;;;;10.71;77.09;99062.88;7361713;19;20011;-58
2023/11/08 07:15:07;;;;;;;0.10;0.10;;;;;;;10.67;77.37;99074.41;7364152;19;20459;-58
2023/11/08 07:17:34;;;;;;;0.10;0.10;;;;;;;10.60;77.81;99073.84;7363291;19;20018;-57
2023/11/08 07:20:00;;;;;;;0.10;0.10;;;;;;;10.55;78.04;99081.91;7335951;19;20671;-54
2023/11/08 07:22:25;;;;;;;0.10;0.10;;;;;;;10.48;77.80;99082.25;7361902;19;20015;-56
2023/11/08 07:24:51;;;;;;;0.00;0.00;;;;;;;10.47;77.86;99093.63;7359690;19;20090;-57
2023/11/08 07:27:17;;;;;;;0.08;0.08;;;;;;;10.44;77.85;99096.38;7360647;19;20006;-58
2023/11/08 07:29:43;;;;;;;0.10;0.10;;;;;;;10.23;78.44;99064.28;7362070;19;20007;-55
2023/11/08 07:32:12;;;;;;;0.00;0.00;;;;;;;10.36;78.77;99099.38;7359038;19;20825;-57
2023/11/08 07:34:38;;;;;;;0.00;0.00;;;;;;;10.32;78.14;99098.66;7365244;19;20052;-58
2023/11/08 07:37:03;;;;;;;0.05;0.05;;;;;;;10.22;78.54;99096.53;7358038;19;21295;-58
2023/11/08 07:39:29;;;;;;;0.10;0.10;;;;;;;9.93;78.34;99062.19;7356081;19;20077;-57
2023/11/08 07:41:54;;;;;;;0.10;0.10;;;;;;;10.11;78.96;99107.44;7356936;19;20017;-58
2023/11/08 07:44:20;;;;;;;0.10;0.10;;;;;;;10.07;78.87;99111.13;7351001;19;20003;-57
2023/11/08 07:46:45;;;;;;;0.10;0.10;;;;;;;10.16;78.61;99138.53;7363374;19;20015;-58
2023/11/08 07:49:10;;;;;;;0.10;0.10;;;;;;;10.11;78.62;99139.59;7360553;19;20375;-57
2023/11/08 07:51:36;;;;;;;0.10;0.10;;;;;;;9.98;78.90;99122.81;7357430;19;20014;-58
2023/11/08 07:54:01;;;;;;;0.00;0.00;;;;;;;10.00;79.08;99141.00;7356783;19;20009;-58
2023/11/08 07:56:26;;;;;;;0.10;0.10;;;;;;;10.07;79.16;99152.84;7359566;19;20022;-57
2023/11/08 07:58:55;;;;;;;0.10;0.10;;;;;;;10.04;79.37;99164.28;7351099;19;20385;-58
2023/11/08 08:01:20;;;;;;;0.00;0.00;;;;;;;10.02;79.13;99166.09;7363039;19;20096;-56
2023/11/08 08:03:46;;;;;;;0.00;0.00;;;;;;;10.00;79.24;99167.94;7359927;19;20782;-58
2023/11/08 08:06:12;;;;;;;0.00;0.00;;;;;;;10.00;79.14;99172.31;7351563;19;20017;-58
2023/11/08 08:08:37;;;;;;;0.10;0.10;;;;;;;9.97;79.42;99173.28;7363270;19;20014;-56
2023/11/08 08:11:03;;;;;;;0.10;0.10;;;;;;;9.97;79.05;99178.50;7370731;19;20010;-58
2023/11/08 08:13:29;;;;;;;0.00;0.00;;;;;;;9.97;78.65;99188.91;7358365;19;20015;-58
2023/11/08 08:15:54;;;;;;;0.00;0.00;;;;;;;9.96;79.16;99191.59;7359116;19;20022;-58
2023/11/08 08:18:20;;;;;;;0.00;0.00;;;;;;;9.94;78.82;99191.69;7349789;19;20222;-58
2023/11/08 08:20:45;;;;;;;0.00;0.00;;;;;;;9.90;79.13;99197.94;7351881;19;20018;-59
2023/11/08 08:23:11;;;;;;;0.00;0.00;;;;;;;9.92;78.89;99206.53;7361952;19;20098;-58
2023/11/08 08:25:40;;;;;;;0.10;0.10;;;;;;;9.93;79.14;99213.44;7358216;19;20022;-58
2023/11/08 08:28:05;;;;;;;0.17;0.17;;;;;;;9.88;79.45;99218.88;7359176;19;20496;-58
2023/11/08 08:30:32;;;;;;;0.10;0.10;;;;;;;9.89;79.53;99222.31;7357538;19;20070;-58
2023/11/08 08:33:01;;;;;;;0.10;0.10;;;;;;;9.84;79.05;99212.09;7360669;19;20040;-59
2023/11/08 08:35:30;;;;;;;0.10;0.10;;;;;;;9.82;79.44;99219.13;7360533;19;20014;-57
2023/11/08 08:37:56;;;;;;;0.08;0.08;;;;;;;9.92;79.19;99242.19;7346345;19;20033;-58
2023/11/08 08:40:21;;;;;;;0.00;0.00;;;;;;;9.90;79.36;99242.25;7358544;19;20010;-58
2023/11/08 08:42:47;;;;;;;0.10;0.10;;;;;;;9.93;79.36;99243.88;7366760;19;20014;-58
2023/11/08 08:45:13;;;;;;;0.10;0.10;;;;;;;9.95;79.01;99252.50;7368790;19;20014;-59
2023/11/08 08:47:40;;;;;;;0.10;0.10;;;;;;;9.93;79.32;99255.16;7357124;19;20015;-59
2023/11/08 08:50:09;;;;;;;0.10;0.10;;;;;;;9.96;79.17;99267.22;7338229;19;21211;-59
2023/11/08 08:52:34;;;;;;;0.10;0.10;;;;;;;9.87;79.40;99250.22;7369239;19;20014;-57
2023/11/08 08:54:59;;;;;;;0.10;0.10;;;;;;;9.97;79.24;99282.78;7367104;19;20062;-58
2023/11/08 08:57:25;;;;;;;0.10;0.10;;;;;;;9.88;78.78;99272.75;7365853;19;20010;-57
2023/11/08 08:59:50;;;;;;;0.10;0.10;;;;;;;9.97;79.28;99276.75;7368971;19;20018;-59
2023/11/08 09:02:16;;;;;;;0.10;0.10;;;;;;;10.00;78.86;99298.31;7364415;19;20014;-58
2023/11/08 09:04:41;;;;;;;0.10;0.10;;;;;;;10.01;79.00;99300.00;7373326;19;20018;-58
2023/11/08 09:07:07;;;;;;;0.10;0.10;;;;;;;10.03;78.86;99307.75;7377620;19;20479;-58
2023/11/08 09:09:33;;;;;;;0.10;0.10;;;;;;;10.04;79.21;99315.53;7368382;19;20090;-59
2023/11/08 09:11:58;;;;;;;0.00;0.00;;;;;;;10.04;78.79;99314.69;7375436;19;20022;-57
2023/11/08 09:14:24;;;;;;;0.00;0.00;;;;;;;10.07;79.29;99320.59;7365108;19;20017;-58
2023/11/08 09:16:50;;;;;;;0.10;0.10;;;;;;;10.08;79.14;99332.72;7370681;19;20022;-58
2023/11/08 09:19:17;;;;;;;0.10;0.10;;;;;;;10.10;79.21;99337.91;7363143;19;20014;-58
2023/11/08 09:21:43;;;;;;;0.10;0.10;;;;;;;10.11;79.05;99326.56;7369300;19;20010;-58
2023/11/08 09:24:09;;;;;;;0.00;0.00;;;;;;;10.13;79.34;99341.22;7362820;19;20007;-58
2023/11/08 09:26:41;;;;;;;0.10;0.10;;;;;;;10.09;79.48;99323.19;7369281;19;20011;-58
2023/11/08 09:29:07;;;;;;;0.10;0.10;;;;;;;10.19;79.51;99344.47;7367472;19;20078;-58
2023/11/08 09:31:34;;;;;;;0.10;0.10;;;;;;;10.24;79.57;99347.75;7372557;19;20102;-59
2023/11/08 09:34:00;;;;;;;0.10;0.10;;;;;;;10.27;78.89;99352.84;7368937;19;20018;-59
2023/11/08 09:36:26;;;;;;;0.10;0.10;;;;;;;10.27;79.37;99352.84;7365845;19;20038;-59
2023/11/08 09:38:52;;;;;;;0.10;0.10;;;;;;;10.28;79.31;99354.53;7359517;19;20542;-59
2023/11/08 09:41:19;;;;;;;0.10;0.10;;;;;;;10.27;79.26;99363.28;7367842;19;20014;-58
2023/11/08 09:43:47;;;;;;;0.10;0.10;;;;;;;10.28;79.33;99360.59;7365428;19;20045;-58
2023/11/08 09:46:13;;;;;;;0.10;0.10;;;;;;;10.23;79.14;99362.53;7368695;19;20063;-58
2023/11/08 09:48:39;;;;;;;0.10;0.10;;;;;;;10.24;79.23;99371.25;7366318;19;20448;-59
2023/11/08 09:51:06;;;;;;;0.03;0.03;;;;;;;10.26;79.03;99366.81;7359534;19;20018;-59
2023/11/08 09:53:32;;;;;;;0.10;0.10;;;;;;;10.28;79.19;99380.63;7365401;19;20011;-58
2023/11/08 09:55:59;;;;;;;0.10;0.10;;;;;;;10.26;79.04;99379.88;7360871;19;21233;-56
2023/11/08 09:58:24;;;;;;;0.10;0.10;;;;;;;10.23;79.01;99382.56;7369279;19;20018;-58
2023/11/08 10:00:56;;;;;;;0.10;0.10;;;;;;;10.26;79.03;99387.69;7358210;19;20031;-58
2023/11/08 10:03:25;;;;;;;0.10;0.10;;;;;;;10.12;78.69;99368.22;7367655;19;20016;-58
2023/11/08 10:05:51;;;;;;;0.10;0.10;;;;;;;10.22;78.87;99391.31;7360339;19;20021;-59
2023/11/08 10:08:18;;;;;;;0.00;0.00;;;;;;;10.14;78.85;99389.03;7369924;19;20018;-58
2023/11/08 10:10:48;;;;;;;0.00;0.00;;;;;;;10.17;78.82;99398.47;7330317;19;20010;-57
2023/11/08 10:13:14;;;;;;;0.10;0.10;;;;;;;10.20;78.77;99398.38;7366116;19;20550;-57
2023/11/08 10:15:41;;;;;;;0.10;0.10;;;;;;;10.20;79.50;99401.81;7369020;19;20031;-57
2023/11/08 10:18:08;;;;;;;0.10;0.10;;;;;;;10.22;79.27;99407.81;7368623;19;20002;-58
2023/11/08 10:20:37;;;;;;;0.10;0.10;;;;;;;10.19;79.43;99401.84;7367152;19;20010;-59
2023/11/08 10:23:05;;;;;;;0.10;0.10;;;;;;;10.35;79.79;99413.41;7365612;19;20453;-58
2023/11/08 10:25:31;;;;;;;0.08;0.08;;;;;;;10.47;79.75;99423.31;7365407;19;20055;-57
2023/11/08 10:28:05;;;;;;;0.10;0.10;;;;;;;10.62;79.37;99421.81;7368053;19;20015;-59
2023/11/08 10:30:39;;;;;;;0.10;0.10;;;;;;;10.75;79.56;99427.34;7363074;19;20796;-59
2023/11/08 10:33:09;;;;;;;0.10;0.10;;;;;;;10.88;79.32;99429.34;7365600;19;20017;-57
2023/11/08 10:35:37;;;;;;;0.10;0.10;;;;;;;11.07;79.13;99424.16;7361418;19;20376;-58
2023/11/08 10:38:05;;;;;;;0.10;0.10;;;;;;;11.24;78.84;99422.53;7359848;19;20023;-58
2023/11/08 10:40:32;;;;;;;0.00;0.00;;;;;;;11.43;78.58;99415.53;7363468;19;20837;-57
2023/11/08 10:42:58;;;;;;;0.10;0.10;;;;;;;11.68;79.07;99430.91;7365899;19;20017;-58
2023/11/08 10:45:25;;;;;;;0.10;0.10;;;;;;;11.97;78.08;99426.94;7360035;19;20043;-58
2023/11/08 10:47:51;;;;;;;0.10;0.10;;;;;;;12.27;78.40;99428.97;7364699;19;20659;-57
2023/11/08 10:50:18;;;;;;;0.10;0.10;;;;;;;12.55;77.84;99428.41;7324535;19;20019;-58
2023/11/08 10:52:46;;;;;;;0.10;0.10;;;;;;;12.91;77.48;99430.91;7347234;19;20008;-58
2023/11/08 10:55:11;;;;;;;0.10;0.10;;;;;;;13.15;76.44;99419.13;7364060;19;20582;-59
2023/11/08 10:57:40;;;;;;;0.10;0.10;;;;;;;13.51;75.94;99431.19;7363753;19;20034;-58
2023/11/08 11:00:08;;;;;;;0.10;0.10;;;;;;;13.66;75.82;99404.09;7363942;19;20018;-58
2023/11/08 11:02:45;;;;;;;0.10;0.10;;;;;;;14.06;74.96;99437.75;7363568;19;20759;-59
2023/11/08 11:05:10;;;;;;;0.13;0.13;;;;;;;14.39;74.66;99440.19;7362350;19;20018;-58
2023/11/08 11:07:41;;;;;;;0.10;0.10;;;;;;;14.72;74.16;99435.59;7366605;19;20014;-59
2023/11/08 11:10:08;;;;;;;0.10;0.10;;;;;;;14.92;73.95;99438.81;7365103;19;20011;-58
2023/11/08 11:12:40;;;;;;;0.10;0.10;;;;;;;15.31;73.95;99446.06;7360842;19;20049;-59
2023/11/08 11:15:11;;;;;;;0.10;0.10;;;;;;;15.53;73.23;99448.19;7361485;19;20022;-57
2023/11/08 11:17:44;;;;;;;0.10;0.10;;;;;;;15.82;72.92;99447.19;7364871;19;20011;-58
2023/11/08 11:20:12;;;;;;;0.00;0.00;;;;;;;15.96;72.03;99448.91;7365091;19;20550;-59
2023/11/08 11:22:41;;;;;;;0.10;0.10;;;;;;;16.15;72.01;99430.13;7362563;19;20015;-58
2023/11/08 11:25:09;;;;;;;0.10;0.10;;;;;;;16.33;71.57;99447.38;7360886;19;20027;-57
2023/11/08 11:27:37;;;;;;;0.10;0.10;;;;;;;16.54;71.28;99439.81;7364324;19;20855;-59
2023/11/08 11:30:16;;;;;;;0.10;0.10;;;;;;;16.85;71.50;99458.84;7364848;19;20071;-59